»·PEaware :: N211WP KWJF-KPOC

N211WP :: KWJF-KPOC

FLIGHT INFORMATION

Flight Status: Arrived
Operator: Privately registered:
United States
More flights under this callsign
Pilot: Wayne M. (1794)
Aircraft: Unknown
(DA40)
More flights by this aircraft type
Origin: KWJF Gen Fox
United States
Destination: KPOC Brackett
United States
More flights between these airports :: More routes between these airports
Route: +PMD BERRI DARTS ITSME
File this flight plan on PilotEdge
Remarks: Instrument student
Altitude:
(Current/Filed)
9,000ft
Speed:
(Current/Filed)
135kts
Departed: 03-Apr-15 11:19 AM
Arrived: 03-Apr-15 12:02 PM
Distance/Time
Traveled:
45nm/0:43
Distance/Time
To Go:
Arrived

Flight Plot

Page will automatically refresh every two minutes.


Map Options




Map Legend


Flown Route
Filed Route
Departure Airport
Arrival Airport
Navaid (VOR, NDB)
Fix

Horizontal Profiles

Position Reports

Time Latitude Longitude Heading Altitude Ground
Speed
03-Apr-15 11:02 34.739056 -118.217246 254 2355ft 0kts
03-Apr-15 11:03 34.739056 -118.217246 254 2355ft 0kts
03-Apr-15 11:04 34.739056 -118.217246 254 2355ft 0kts
03-Apr-15 11:05 34.739056 -118.217246 254 2355ft 0kts
03-Apr-15 11:06 34.739056 -118.217246 254 2355ft 0kts
03-Apr-15 11:07 34.739056 -118.217246 254 2355ft 0kts
03-Apr-15 11:08 34.739056 -118.217246 254 2355ft 0kts
03-Apr-15 11:09 34.739056 -118.217246 254 2355ft 0kts
03-Apr-15 11:10 34.739056 -118.217246 254 2355ft 0kts
03-Apr-15 11:11 34.739056 -118.217246 254 2355ft 0kts
03-Apr-15 11:12 34.739020 -118.217563 268 2355ft 6kts
03-Apr-15 11:13 34.738601 -118.219506 57 2355ft 17kts
03-Apr-15 11:14 34.739487 -118.220889 249 2355ft 14kts
03-Apr-15 11:15 34.737713 -118.227476 250 2355ft 24kts
03-Apr-15 11:16 34.737124 -118.229089 279 2355ft 0kts
03-Apr-15 11:17 34.737187 -118.229435 292 2355ft 2kts
03-Apr-15 11:18 34.738892 -118.226545 72 2355ft 68kts
03-Apr-15 11:19 34.739100 -118.199803 139 3484ft 86kts
03-Apr-15 11:20 34.720002 -118.187814 139 4508ft 89kts
03-Apr-15 11:21 34.701868 -118.164951 124 5197ft 119kts
03-Apr-15 11:22 34.681419 -118.134559 128 5762ft 132kts
03-Apr-15 11:23 34.659709 -118.103819 128 6305ft 134kts
03-Apr-15 11:24 34.632577 -118.070579 165 5935ft 163kts
03-Apr-15 11:25 34.598487 -118.081728 203 6204ft 142kts
03-Apr-15 11:26 34.567503 -118.097881 204 6726ft 136kts
03-Apr-15 11:27 34.540432 -118.112234 204 7204ft 135kts
03-Apr-15 11:28 34.514617 -118.125977 204 7683ft 134kts
03-Apr-15 11:29 34.487369 -118.140435 204 8142ft 133kts
03-Apr-15 11:30 34.461831 -118.153948 203 8594ft 133kts
03-Apr-15 11:31 34.437069 -118.167036 202 9037ft 133kts
03-Apr-15 11:32 34.412690 -118.179924 202 9382ft 139kts
03-Apr-15 11:33 34.384865 -118.194618 202 9065ft 158kts
03-Apr-15 11:34 34.356579 -118.209554 202 9035ft 152kts
03-Apr-15 11:35 34.329554 -118.223817 202 9020ft 151kts
03-Apr-15 11:36 34.302923 -118.237867 202 9008ft 150kts
03-Apr-15 11:37 34.279499 -118.250222 203 8998ft 146kts
03-Apr-15 11:38 34.258136 -118.261478 203 8985ft 139kts
03-Apr-15 11:39 34.237137 -118.272541 203 8978ft 137kts
03-Apr-15 11:40 34.215590 -118.283881 203 8979ft 143kts
03-Apr-15 11:41 34.192655 -118.288772 161 8977ft 144kts
03-Apr-15 11:42 34.171470 -118.278221 155 8749ft 145kts
03-Apr-15 11:43 34.153595 -118.258324 115 8370ft 147kts
03-Apr-15 11:44 34.145650 -118.226781 104 7896ft 135kts
03-Apr-15 11:45 34.139110 -118.195713 104 7383ft 129kts
03-Apr-15 11:46 34.132816 -118.165802 104 6871ft 125kts
03-Apr-15 11:47 34.126564 -118.136084 104 6356ft 124kts
03-Apr-15 11:48 34.120430 -118.106910 104 5848ft 123kts
03-Apr-15 11:49 34.114197 -118.077253 104 5325ft 122kts
03-Apr-15 11:50 34.108459 -118.049940 104 4843ft 122kts
03-Apr-15 11:51 34.102216 -118.020198 103 4305ft 115kts
03-Apr-15 11:52 34.096546 -117.993127 103 3905ft 108kts
03-Apr-15 11:53 34.090396 -117.963852 103 3387ft 123kts
03-Apr-15 11:54 34.083878 -117.932774 103 3048ft 109kts
03-Apr-15 11:55 34.083924 -117.907902 62 2904ft 101kts
03-Apr-15 11:56 34.093802 -117.884050 72 2452ft 105kts
03-Apr-15 11:57 34.095281 -117.857521 92 2193ft 98kts
03-Apr-15 11:58 34.093036 -117.832273 85 2006ft 99kts
03-Apr-15 11:59 34.092887 -117.808289 94 1603ft 87kts
03-Apr-15 12:00 34.092216 -117.783738 90 1015ft 56kts
03-Apr-15 12:01 34.091858 -117.775628 93 1015ft 16kts
03-Apr-15 12:02 34.092264 -117.774856 330 1015ft 0kts

Navigation Log

Ident Type
Flight plan parsing failed, navigation log unavailable